createdAt,value
2019-06-26T00:01:16.188Z,16.6
2019-06-26T00:04:18.456Z,16.6
2019-06-26T00:07:20.573Z,16.7
2019-06-26T00:10:25.236Z,16.6
2019-06-26T00:13:27.218Z,16.6
2019-06-26T00:16:29.348Z,16.5
2019-06-26T00:19:31.730Z,16.4
2019-06-26T00:22:34.281Z,16.2
2019-06-26T00:25:36.612Z,16.2
2019-06-26T00:28:38.793Z,16.4
2019-06-26T00:31:40.921Z,16.4
2019-06-26T00:34:43.015Z,16.3
2019-06-26T00:37:45.365Z,16.2
2019-06-26T00:40:47.787Z,16.1
2019-06-26T00:43:50.131Z,16.1
2019-06-26T00:46:52.137Z,16.2
2019-06-26T00:49:54.625Z,16.1
2019-06-26T00:52:59.241Z,15.9
2019-06-26T00:56:01.358Z,15.9
2019-06-26T00:59:06.192Z,16.0
2019-06-26T01:02:08.148Z,16.0
2019-06-26T01:05:10.424Z,16.0
2019-06-26T01:08:12.477Z,15.9
2019-06-26T01:11:14.452Z,15.8
2019-06-26T01:14:16.471Z,15.8
2019-06-26T01:17:18.602Z,15.8
2019-06-26T01:20:20.651Z,15.8
2019-06-26T01:23:22.792Z,15.8
2019-06-26T01:26:24.744Z,16.0
2019-06-26T01:29:32.487Z,16.1
2019-06-26T01:32:36.342Z,16.1
2019-06-26T01:35:38.516Z,16.0
2019-06-26T01:38:40.529Z,15.8
2019-06-26T01:41:42.564Z,15.7
2019-06-26T01:44:44.595Z,15.8
2019-06-26T01:47:46.882Z,15.9
2019-06-26T01:50:48.934Z,15.8
2019-06-26T01:53:53.525Z,15.6
2019-06-26T01:56:55.529Z,15.6
2019-06-26T01:59:57.702Z,15.6
2019-06-26T02:02:59.834Z,15.5
2019-06-26T02:06:01.837Z,15.6
2019-06-26T02:09:03.938Z,15.5
2019-06-26T02:12:08.488Z,15.6
2019-06-26T02:15:10.751Z,15.5
2019-06-26T02:18:12.895Z,15.6
2019-06-26T02:21:14.966Z,15.6
2019-06-26T02:24:16.994Z,15.6
2019-06-26T02:27:18.958Z,15.6
2019-06-26T02:30:21.074Z,15.7
2019-06-26T02:33:23.210Z,15.7
2019-06-26T02:36:25.235Z,15.8
2019-06-26T02:39:27.379Z,15.8
2019-06-26T02:42:29.485Z,15.8
2019-06-26T02:45:31.587Z,15.9
2019-06-26T02:48:34.045Z,15.8
2019-06-26T02:51:36.216Z,15.7
2019-06-26T02:54:38.270Z,15.7
2019-06-26T02:57:40.612Z,15.7
2019-06-26T03:00:42.704Z,15.8
2019-06-26T03:03:44.845Z,15.8
2019-06-26T03:06:46.896Z,15.8
2019-06-26T03:09:51.538Z,15.7
2019-06-26T03:12:54.759Z,15.7
2019-06-26T03:15:56.867Z,15.7
2019-06-26T03:18:58.900Z,15.8
2019-06-26T03:22:03.547Z,16.1
2019-06-26T03:25:05.473Z,16.1
2019-06-26T03:28:07.478Z,16.2
2019-06-26T03:31:09.525Z,16.0
2019-06-26T03:34:11.580Z,16.0
2019-06-26T03:37:16.286Z,16.0
2019-06-26T03:40:18.228Z,16.0
2019-06-26T03:43:20.224Z,16.0
2019-06-26T03:46:22.339Z,15.9
2019-06-26T03:49:24.758Z,15.9
2019-06-26T03:52:26.865Z,15.8
2019-06-26T03:55:28.992Z,15.9
2019-06-26T03:58:31.103Z,15.8
2019-06-26T04:01:33.450Z,15.7
2019-06-26T04:04:35.491Z,15.6
2019-06-26T04:07:37.972Z,15.5
2019-06-26T04:10:43.176Z,15.5
2019-06-26T04:11:14.512Z,15.5
2019-06-26T04:14:16.548Z,15.5
2019-06-26T04:17:18.553Z,15.7
2019-06-26T04:20:20.589Z,15.7
2019-06-26T04:23:25.227Z,15.7
2019-06-26T04:26:27.227Z,15.7
2019-06-26T04:29:31.764Z,15.8
2019-06-26T04:32:34.521Z,15.8
2019-06-26T04:35:36.834Z,15.7
2019-06-26T04:38:39.340Z,15.7
2019-06-26T04:41:41.370Z,15.7
2019-06-26T04:44:43.390Z,15.8
2019-06-26T04:47:45.496Z,15.9
2019-06-26T04:50:47.869Z,15.8
2019-06-26T04:53:50.034Z,15.9
2019-06-26T04:56:54.621Z,16.1
2019-06-26T04:59:56.769Z,16.0
2019-06-26T05:02:58.813Z,16.1
2019-06-26T05:06:03.367Z,16.4
2019-06-26T05:09:05.493Z,16.4
2019-06-26T05:12:07.573Z,16.5
2019-06-26T05:15:09.723Z,16.6
2019-06-26T05:18:11.754Z,16.6
2019-06-26T05:21:13.798Z,16.6
2019-06-26T05:24:15.887Z,16.6
2019-06-26T05:27:18.077Z,16.6
2019-06-26T05:30:20.131Z,16.5
2019-06-26T05:33:22.157Z,16.6
2019-06-26T05:36:24.259Z,16.6
2019-06-26T05:39:26.461Z,16.7
2019-06-26T05:42:28.571Z,16.9
2019-06-26T05:45:33.483Z,17.2
2019-06-26T05:48:35.679Z,17.1
2019-06-26T05:51:37.709Z,17.2
2019-06-26T05:54:39.813Z,17.4
2019-06-26T05:57:43.436Z,17.6
2019-06-26T06:00:45.581Z,17.7
2019-06-26T06:03:47.784Z,18.4
2019-06-26T06:06:50.143Z,19.4
2019-06-26T06:09:52.627Z,20.1
2019-06-26T06:13:00.057Z,21.2
2019-06-26T06:16:05.433Z,21.3
2019-06-26T06:19:19.407Z,21.8
2019-06-26T06:22:21.644Z,22.2
2019-06-26T06:25:23.743Z,22.6
2019-06-26T06:28:25.833Z,23.0
2019-06-26T06:31:28.000Z,23.2
2019-06-26T06:34:30.394Z,23.7
2019-06-26T06:37:32.756Z,24.0
2019-06-26T06:40:34.999Z,24.0
2019-06-26T06:43:36.959Z,23.9
2019-06-26T06:46:39.003Z,24.2
2019-06-26T06:49:41.081Z,24.6
2019-06-26T06:52:43.496Z,25.0
2019-06-26T06:55:45.501Z,25.2
2019-06-26T06:58:50.229Z,25.6
2019-06-26T07:01:52.339Z,25.5
2019-06-26T07:04:54.351Z,25.7
2019-06-26T07:07:56.422Z,26.0
2019-06-26T07:11:03.593Z,26.5
2019-06-26T07:14:08.192Z,26.6
2019-06-26T07:17:19.715Z,26.6
2019-06-26T07:20:23.439Z,26.8
2019-06-26T07:23:25.475Z,27.1
2019-06-26T07:26:27.427Z,27.1
2019-06-26T07:29:29.442Z,27.4
2019-06-26T07:32:31.490Z,27.5
2019-06-26T07:35:33.726Z,27.7
2019-06-26T07:38:35.723Z,28.1
2019-06-26T07:41:37.762Z,28.2
2019-06-26T07:44:39.761Z,28.4
2019-06-26T07:47:43.423Z,28.6
2019-06-26T07:50:46.390Z,28.7
2019-06-26T07:53:48.419Z,29.1
2019-06-26T07:56:50.544Z,28.9
2019-06-26T07:59:52.615Z,28.6
2019-06-26T08:02:54.823Z,28.6
2019-06-26T08:05:56.939Z,28.6
2019-06-26T08:09:01.482Z,29.1
2019-06-26T08:12:03.781Z,29.1
2019-06-26T08:15:05.893Z,29.4
2019-06-26T08:18:08.265Z,29.6
2019-06-26T08:21:12.377Z,29.7
2019-06-26T08:24:18.356Z,29.8
2019-06-26T08:27:20.379Z,30.0
2019-06-26T08:30:24.938Z,30.3
2019-06-26T08:33:32.103Z,30.8
2019-06-26T08:36:34.132Z,30.8
2019-06-26T08:39:36.248Z,31.1
2019-06-26T08:42:39.348Z,31.0
2019-06-26T08:45:41.553Z,31.3
2019-06-26T08:48:43.660Z,31.2
2019-06-26T08:51:58.118Z,31.0
2019-06-26T08:55:02.683Z,30.7
2019-06-26T08:58:04.867Z,30.6
2019-06-26T09:01:06.891Z,30.6
2019-06-26T09:04:08.946Z,30.4
2019-06-26T09:07:11.080Z,30.3
2019-06-26T09:10:13.212Z,30.1
2019-06-26T09:13:16.904Z,30.1
2019-06-26T09:16:24.053Z,29.7
2019-06-26T09:19:26.125Z,29.7
2019-06-26T09:22:28.093Z,29.6
2019-06-26T09:25:30.254Z,29.5
2019-06-26T09:28:34.888Z,29.7
2019-06-26T09:31:37.039Z,29.7
2019-06-26T09:34:41.633Z,29.4
2019-06-26T09:37:43.933Z,29.4
2019-06-26T09:40:46.006Z,29.2
2019-06-26T09:43:48.051Z,29.0
2019-06-26T09:46:50.091Z,29.0
2019-06-26T09:49:52.284Z,29.2
2019-06-26T09:52:54.399Z,29.2
2019-06-26T09:55:56.520Z,29.3
2019-06-26T09:58:58.610Z,29.2
2019-06-26T10:02:00.847Z,29.3
2019-06-26T10:05:02.966Z,29.4
2019-06-26T10:08:10.064Z,29.2
2019-06-26T10:11:12.142Z,29.2
2019-06-26T10:14:14.277Z,29.6
2019-06-26T10:17:19.709Z,29.7
2019-06-26T10:20:21.722Z,29.7
2019-06-26T10:23:23.840Z,29.7
2019-06-26T10:26:25.980Z,29.8
2019-06-26T10:29:28.082Z,30.0
2019-06-26T10:32:30.405Z,29.9
2019-06-26T10:35:32.468Z,30.1
2019-06-26T10:38:34.603Z,30.3
2019-06-26T10:41:40.193Z,30.4
2019-06-26T10:44:42.351Z,30.4
2019-06-26T10:47:44.765Z,30.7
2019-06-26T10:50:49.998Z,30.8
2019-06-26T10:54:03.380Z,31.0
2019-06-26T10:57:05.539Z,31.0
2019-06-26T11:00:10.103Z,31.5
2019-06-26T11:03:12.210Z,31.5
2019-06-26T11:06:14.264Z,31.8
2019-06-26T11:09:23.883Z,32.4
2019-06-26T11:12:25.935Z,32.4
2019-06-26T11:15:28.050Z,32.7
2019-06-26T11:18:30.282Z,32.7
2019-06-26T11:21:32.468Z,32.8
2019-06-26T11:24:35.006Z,32.9
2019-06-26T11:27:37.790Z,32.9
2019-06-26T11:30:39.784Z,33.1
2019-06-26T11:33:44.294Z,33.3
2019-06-26T11:36:59.440Z,33.3
2019-06-26T11:40:06.621Z,33.6
2019-06-26T11:43:08.751Z,33.8
2019-06-26T11:46:10.839Z,33.8
2019-06-26T11:49:13.010Z,33.9
2019-06-26T11:52:32.043Z,34.1
2019-06-26T11:55:34.283Z,34.0
2019-06-26T11:58:36.980Z,34.3
2019-06-26T12:01:39.273Z,34.3
2019-06-26T12:04:43.905Z,34.4
2019-06-26T12:07:46.298Z,34.4
2019-06-26T12:10:50.092Z,34.8
2019-06-26T12:13:52.013Z,34.8
2019-06-26T12:16:54.071Z,34.7
2019-06-26T12:19:56.319Z,35.3
2019-06-26T12:22:58.421Z,35.3
2019-06-26T12:26:00.353Z,35.6
2019-06-26T12:29:02.385Z,34.9
2019-06-26T12:32:04.619Z,34.4
2019-06-26T12:35:32.386Z,34.1
2019-06-26T12:38:34.486Z,35.1
2019-06-26T12:41:36.681Z,34.9
2019-06-26T12:44:46.233Z,35.5
2019-06-26T12:47:52.263Z,35.6
2019-06-26T12:50:54.241Z,35.6
2019-06-26T12:53:58.384Z,35.6
2019-06-26T12:57:00.593Z,36.3
2019-06-26T13:00:02.898Z,36.5
2019-06-26T13:03:05.319Z,36.4
2019-06-26T13:06:07.308Z,36.3
2019-06-26T13:09:09.471Z,36.3
2019-06-26T13:12:13.975Z,36.3
2019-06-26T13:15:17.530Z,36.3
2019-06-26T13:18:22.917Z,36.6
2019-06-26T13:21:25.028Z,37.0
2019-06-26T13:24:27.307Z,37.0
2019-06-26T13:27:29.336Z,37.2
2019-06-26T13:30:31.425Z,37.1
2019-06-26T13:33:33.629Z,36.4
2019-06-26T13:36:35.738Z,36.6
2019-06-26T13:39:38.932Z,36.3
2019-06-26T13:42:41.202Z,36.2
2019-06-26T13:45:44.541Z,36.2
2019-06-26T13:48:46.599Z,36.2
2019-06-26T13:51:48.560Z,36.6
2019-06-26T13:54:57.305Z,36.6
2019-06-26T13:57:59.561Z,36.6
2019-06-26T14:01:01.555Z,36.6
2019-06-26T14:04:03.619Z,36.8
2019-06-26T14:07:08.564Z,36.8
2019-06-26T14:10:10.748Z,36.8
2019-06-26T14:13:12.777Z,37.1
2019-06-26T14:16:14.766Z,37.3
2019-06-26T14:19:16.925Z,37.5
2019-06-26T14:22:19.794Z,37.2
2019-06-26T14:25:21.879Z,36.6
2019-06-26T14:28:24.047Z,36.7
2019-06-26T14:31:26.144Z,36.5
2019-06-26T14:34:28.249Z,36.8
2019-06-26T14:37:30.295Z,36.5
2019-06-26T14:40:32.295Z,36.7
2019-06-26T14:43:34.402Z,36.5
2019-06-26T14:46:36.446Z,36.7
2019-06-26T14:49:38.603Z,37.1
2019-06-26T14:52:41.117Z,36.8
2019-06-26T14:55:43.265Z,36.9
2019-06-26T14:58:45.237Z,37.1
2019-06-26T15:01:47.256Z,36.4
2019-06-26T15:04:49.298Z,36.8
2019-06-26T15:07:51.393Z,37.0
2019-06-26T15:10:53.497Z,36.9
2019-06-26T15:13:55.526Z,36.9
2019-06-26T15:16:57.533Z,36.7
2019-06-26T15:20:02.123Z,36.5
2019-06-26T15:23:04.228Z,36.4
2019-06-26T15:26:06.296Z,36.5
2019-06-26T15:29:10.821Z,35.9
2019-06-26T15:32:12.825Z,35.9
2019-06-26T15:35:14.897Z,36.1
2019-06-26T15:38:16.929Z,36.1
2019-06-26T15:41:18.886Z,36.1
2019-06-26T15:44:20.987Z,35.9
2019-06-26T15:47:22.992Z,36.0
2019-06-26T15:50:25.032Z,35.8
2019-06-26T15:53:26.987Z,35.8
2019-06-26T15:56:31.585Z,35.6
2019-06-26T15:59:36.158Z,35.4
2019-06-26T16:00:00.417Z,35.3
2019-06-26T16:03:02.549Z,35.4
2019-06-26T16:06:04.575Z,35.3
2019-06-26T16:09:06.676Z,35.3
2019-06-26T16:12:11.184Z,34.8
2019-06-26T16:12:42.577Z,34.8
2019-06-26T16:15:47.198Z,34.8
2019-06-26T16:16:14.809Z,34.8
2019-06-26T16:19:16.756Z,34.9
2019-06-26T16:22:31.434Z,34.9
2019-06-26T16:25:34.892Z,35.0
2019-06-26T16:28:36.942Z,34.5
2019-06-26T16:31:38.926Z,34.3
2019-06-26T16:34:40.992Z,34.2
2019-06-26T16:37:44.421Z,34.0
2019-06-26T16:40:46.391Z,33.6
2019-06-26T16:43:48.367Z,33.6
2019-06-26T16:46:50.449Z,33.5
2019-06-26T16:49:52.423Z,33.5
2019-06-26T16:52:54.624Z,33.3
2019-06-26T16:56:01.875Z,32.8
2019-06-26T16:59:03.975Z,32.8
2019-06-26T17:02:07.182Z,32.6
2019-06-26T17:05:09.283Z,32.5
2019-06-26T17:08:13.943Z,32.1
2019-06-26T17:11:15.955Z,32.1
2019-06-26T17:14:18.082Z,32.0
2019-06-26T17:17:20.487Z,31.6
2019-06-26T17:20:27.582Z,31.4
2019-06-26T17:23:29.819Z,31.4
2019-06-26T17:26:32.002Z,31.3
2019-06-26T17:29:34.124Z,31.2
2019-06-26T17:32:36.943Z,30.9
2019-06-26T17:35:38.963Z,30.1
2019-06-26T17:38:41.050Z,30.1
2019-06-26T17:41:44.101Z,29.3
2019-06-26T17:44:48.823Z,28.7
2019-06-26T17:47:52.374Z,28.7
2019-06-26T17:50:54.339Z,28.4
2019-06-26T17:53:56.507Z,28.0
2019-06-26T17:56:58.487Z,27.3
2019-06-26T18:00:00.494Z,27.0
2019-06-26T18:03:04.400Z,27.0
2019-06-26T18:06:06.418Z,27.0
2019-06-26T18:09:12.390Z,26.8
2019-06-26T18:12:14.594Z,26.7
2019-06-26T18:15:16.577Z,26.8
2019-06-26T18:18:18.755Z,26.8
2019-06-26T18:21:20.769Z,26.7
2019-06-26T18:24:22.913Z,26.8
2019-06-26T18:27:24.885Z,26.4
2019-06-26T18:30:26.921Z,25.6
2019-06-26T18:33:29.020Z,25.4
2019-06-26T18:36:33.445Z,25.0
2019-06-26T18:39:39.159Z,25.0
2019-06-26T18:42:41.795Z,25.0
2019-06-26T18:45:46.706Z,24.9
2019-06-26T18:48:49.112Z,24.8
2019-06-26T18:51:51.142Z,24.3
2019-06-26T18:54:53.210Z,23.9
2019-06-26T18:57:55.179Z,23.8
2019-06-26T19:00:57.123Z,23.8
2019-06-26T19:03:59.100Z,23.6
2019-06-26T19:07:01.174Z,23.4
2019-06-26T19:10:05.844Z,23.1
2019-06-26T19:13:09.039Z,23.1
2019-06-26T19:16:13.541Z,23.1
2019-06-26T19:19:15.579Z,23.0
2019-06-26T19:22:17.568Z,23.0
2019-06-26T19:25:19.871Z,22.6
2019-06-26T19:28:23.160Z,22.6
2019-06-26T19:31:25.259Z,22.7
2019-06-26T19:34:27.326Z,22.5
2019-06-26T19:37:39.234Z,22.4
2019-06-26T19:40:41.367Z,22.3
2019-06-26T19:43:43.365Z,22.0
2019-06-26T19:46:45.346Z,21.4
2019-06-26T19:49:47.443Z,21.4
2019-06-26T19:52:52.122Z,22.0
2019-06-26T19:55:54.189Z,21.9
2019-06-26T19:58:56.146Z,21.9
2019-06-26T20:01:58.109Z,21.6
2019-06-26T20:05:07.569Z,21.2
2019-06-26T20:08:09.668Z,21.2
2019-06-26T20:11:29.703Z,21.0
2019-06-26T20:14:31.866Z,21.0
2019-06-26T20:17:34.314Z,21.1
2019-06-26T20:20:38.889Z,20.7
2019-06-26T20:23:43.586Z,20.3
2019-06-26T20:26:45.981Z,20.2
2019-06-26T20:29:48.135Z,20.2
2019-06-26T20:32:58.958Z,20.4
2019-06-26T20:36:01.012Z,20.4
2019-06-26T20:39:03.112Z,20.2
2019-06-26T20:42:05.223Z,20.0
2019-06-26T20:45:07.386Z,19.9
2019-06-26T20:48:09.510Z,19.7
2019-06-26T20:51:11.586Z,19.6
2019-06-26T20:54:13.627Z,19.6
2019-06-26T20:57:34.502Z,19.4
2019-06-26T21:00:36.662Z,19.0
2019-06-26T21:03:38.822Z,18.9
2019-06-26T21:06:40.852Z,18.9
2019-06-26T21:09:48.054Z,19.0
2019-06-26T21:12:50.232Z,19.0
2019-06-26T21:15:53.089Z,19.2
2019-06-26T21:18:55.480Z,19.1
2019-06-26T21:21:59.962Z,18.7
2019-06-26T21:25:16.801Z,18.7
2019-06-26T21:28:21.410Z,18.5
2019-06-26T21:31:23.646Z,18.5
2019-06-26T21:34:25.729Z,18.4
2019-06-26T21:37:27.851Z,18.3
2019-06-26T21:40:29.923Z,18.2
2019-06-26T21:43:32.012Z,18.0
2019-06-26T21:46:34.254Z,18.0
2019-06-26T21:49:36.291Z,18.3
2019-06-26T21:52:38.817Z,18.2
2019-06-26T21:55:41.047Z,18.1
2019-06-26T21:58:46.491Z,17.5
2019-06-26T21:59:27.210Z,17.5
2019-06-26T22:02:29.070Z,17.5
2019-06-26T22:05:31.327Z,17.4
2019-06-26T22:08:33.563Z,17.3
2019-06-26T22:11:36.317Z,17.4
2019-06-26T22:14:38.618Z,17.6
2019-06-26T22:17:40.999Z,17.8
2019-06-26T22:20:43.047Z,17.9
2019-06-26T22:23:45.265Z,17.7
2019-06-26T22:26:49.835Z,17.3
2019-06-26T22:29:52.051Z,17.3
2019-06-26T22:32:55.303Z,17.1
2019-06-26T22:35:57.337Z,17.2
2019-06-26T22:38:59.431Z,17.3
2019-06-26T22:42:06.534Z,17.3
2019-06-26T22:45:08.844Z,17.3
2019-06-26T22:48:10.958Z,17.1
2019-06-26T22:51:13.060Z,17.2
2019-06-26T22:54:15.092Z,17.4
2019-06-26T22:57:17.171Z,17.5
2019-06-26T23:00:19.363Z,17.5
2019-06-26T23:03:21.468Z,17.1
2019-06-26T23:06:23.654Z,16.9
2019-06-26T23:09:28.648Z,17.1
2019-06-26T23:12:30.710Z,17.0
2019-06-26T23:15:32.905Z,17.2
2019-06-26T23:18:35.052Z,17.3
2019-06-26T23:21:37.061Z,17.0
2019-06-26T23:24:39.201Z,16.9
2019-06-26T23:27:41.332Z,17.2
2019-06-26T23:30:44.534Z,17.1
2019-06-26T23:33:46.671Z,16.7
2019-06-26T23:36:48.713Z,16.6
2019-06-26T23:39:50.749Z,16.4
2019-06-26T23:42:52.787Z,16.3
2019-06-26T23:45:55.005Z,16.5
2019-06-26T23:48:57.121Z,16.6
2019-06-26T23:51:59.172Z,16.6
2019-06-26T23:55:03.964Z,16.4
2019-06-26T23:58:08.663Z,16.2
